Tiempo atmosférico en la estación meteorológica de Aroche, Huelva (260 m.)



Fecha
DESCASC
Temp. máxima en grados centígrados (hora)
DESCASC
Temp. mínima en grados centígrados (hora)
DESCASC
Temp. media en grados centígrados
DESCASC
Racha de viento máxima en m/sg (hora)
DESCASC
Velocidad máxima media en intervalos de 10 minutos(hora)
DESCASC
Precipitaciones diarias en mm
DESCASC
Precipitaciones de 00:00 a 06:00 en mm
DESCASC
Precipitaciones de 06:00 a 12:00 en mm
DESCASC
Precipitaciones de 12:00 a 18:00 en mm
DESCASC
Precipitaciones de 18:00 a 24:00 en mm
DESCASC
19-04-2018 27.2 (14:40) 7.7 (07:00) 17.5 7.5 (14:50) 4.72 (16:40) 0 0 0 0 0
18-04-2018 27.8 (17:30) 6.6 (07:50) 17.2 5.28 (16:50) 2.78 (15:20) 0 0 0 0 0
17-04-2018 24 (18:20) 3.5 (07:30) 13.8 5.28 (18:40) 3.33 (18:40) 0 0 0 0 0
16-04-2018 18.2 (16:30) 7.1 (08:10) 12.7 7.78 (17:20) 4.17 (16:40) 0.2 0.2 0 0 0
15-04-2018 15.6 (17:20) 6.1 (00:00) 10.9 9.17 (20:20) 5.28 (20:50) 7.6 0 0 0 7.6
14-04-2018 18.1 (17:10) 3.3 (00:00) 10.7 8.33 (14:40) 5.56 (14:30) 0 0 0 0 0
13-04-2018 15.9 (15:30) 4.6 (00:00) 10.2 8.89 (17:40) 5.28 (17:40) 0.4 0.2 0 0 0.2
12-04-2018 13 (18:40) 5.1 (00:00) 9 18.33 (14:10) 8.61 (14:10) 16.2 0.8 0.8 14.6 0
11-04-2018 15.2 (15:50) 6.6 (00:00) 10.9 13.06 (14:00) 7.5 (18:50) 0.2 0.2 0 0 0
10-04-2018 11.7 (15:40) 6.1 (00:00) 8.9 13.33 (19:30) 6.94 (17:50) 23.2 0 9.6 13.2 0.4
09-04-2018 15.1 (18:20) 2 (00:00) 8.6 9.17 (15:30) 5.28 (15:20) 0 0 0 0 0
08-04-2018 16.6 (16:40) 7.6 (00:00) 12.1 13.61 (21:10) 6.67 (20:50) 1.6 0.2 0 0 1.4
07-04-2018 15.9 (13:50) 7.6 (00:00) 11.7 11.11 (14:40) 6.11 (14:40) 23.2 6.6 0 7.2 9.4
06-04-2018 21.6 (15:10) 4.2 (00:00) 12.9 13.06 (16:50) 7.22 (15:50) 5.4 0 0 0 5.4
05-04-2018 24.4 (17:20) 3.9 (00:00) 14.1 6.11 (12:30) 3.33 (11:20) 0 0 0 0 0
04-04-2018 18.9 (16:30) 8.3 (00:00) 13.6 10 (15:10) 6.11 (14:20) 0 0 0 0 0
03-04-2018 19.9 (17:10) 8 (00:00) 13.9 12.78 (18:10) 7.5 (18:40) 0 0 0 0 0
02-04-2018 19.8 (13:40) 5.8 (00:00) 12.8 9.72 (14:50) 6.67 (16:10) 2.8 0 0 0.4 2.4
01-04-2018 23.9 (15:50) 3 (00:00) 13.4 7.78 (12:30) 5 (12:30) 0 0 0 0 0
31-03-2018 16.6 (17:40) 1.8 (00:00) 9.2 8.33 (14:20) 4.44 (12:50) 0 0 0 0 0
30-03-2018 15 (17:40) 7.2 (00:00) 11.1 16.67 (16:50) 9.17 (20:10) 1.2 1 0 0 0.2
29-03-2018 14.9 (17:20) 7.2 (00:00) 11 10.83 (17:40) 6.39 (17:40) 0 0 0 0 0
28-03-2018 21.9 (15:40) 3.4 (00:00) 12.6 10.83 (23:50) 6.39 (23:30) 0 0 0 0 0
27-03-2018 22.3 (18:20) 2.3 (00:00) 12.3 11.39 (15:40) 5.83 (15:30) 0 0 0 0 0
26-03-2018 17.4 (17:20) 2 (00:00) 9.7 7.5 (16:10) 4.72 (14:40) 0 0 0 0 0
25-03-2018 14.7 (17:50) 7.4 (00:00) 11 11.67 (16:50) 7.22 (17:00) 11.4 4.4 6.8 0.2 0
24-03-2018 13.2 (16:00) 6.7 (00:00) 9.9 16.67 (01:20) 9.44 (01:20) 5.2 5.2 0 0 0
23-03-2018 13.5 (17:30) 5.5 (00:00) 9.5 12.5 (23:59) 6.67 (22:40) 5 0 0 3.4 1.6

Gráficas

Temp. máximas Temp. mínimas Temp. medias Precipitaciones Rachas de viento máximas Velocidades máximas media en intervalos de 10 minutos

Datos horarios

Fecha y hora oficial Temperatura (ºC) Velocidad del viento (km/h) Dirección del viento Racha (km/h) Dirección de racha Precipitación (mm) Presión (hPa) Tendencia (hPa) Humedad (%)
2018-04-21 23:00:00 14.8 8 Nordeste 23 Oeste 0 -- -- 94
2018-04-21 22:00:00 15.2 12 Sur 31 Nordeste 0 -- -- 95
2018-04-21 21:00:00 15 20 Este 53 Nordeste 3.6 -- -- 93
2018-04-21 20:00:00 15.1 3 Sudoeste 28 Este 0.8 -- -- 93
2018-04-21 19:00:00 15.7 6 Norte 16 Sur 0.2 -- -- 88
2018-04-21 18:00:00 16.4 4 Noroeste 26 Sudoeste 0.2 -- -- 86
2018-04-21 17:00:00 18.3 13 Sur 22 Sur 0 -- -- 69
2018-04-21 16:00:00 18.2 12 Este 31 Sudeste 0 -- -- 70
2018-04-21 15:00:00 17.7 8 Sudeste 23 Este 0 -- -- 77
2018-04-21 14:00:00 17.2 12 Sudeste 26 Este 1 -- -- 82
2018-04-21 13:00:00 14 13 Sudeste 28 Sudeste 4.6 -- -- 94
2018-04-21 12:00:00 14.5 9 Sudoeste 24 Oeste 1 -- -- 93
2018-04-21 11:00:00 15.8 9 Oeste 16 Oeste 0.4 -- -- 84
2018-04-21 10:00:00 17.1 8 Este 35 Nordeste 0 -- -- 70
2018-04-21 09:00:00 16.8 28 Este 51 Este 0 -- -- 73
2018-04-21 08:00:00 16.8 25 Este 41 Este 0 -- -- 72
2018-04-21 07:00:00 14.6 13 Sudeste 26 Sudeste 0.4 -- -- 89
2018-04-21 06:00:00 13.4 2 Nordeste 19 Sudoeste 1 -- -- 97
2018-04-21 05:00:00 13.7 13 Este 19 Nordeste 1 -- -- 96
2018-04-21 04:00:00 14 10 Oeste 21 Oeste 0 -- -- 91
2018-04-21 03:00:00 14.2 7 Oeste 21 Oeste 0 -- -- 90
2018-04-21 02:00:00 15 17 Oeste 31 Oeste 0 -- -- 86
2018-04-21 01:00:00 16 4 Sur 12 Sudeste 0 -- -- 80
2018-04-21 00:00:00 16.3 5 Este 19 Sudeste 0 -- -- 78
2018-04-20 23:00:00 17.1 10 Sudeste 20 Sudeste 0 -- -- 76
2018-04-20 22:00:00 16.3 8 Nordeste 12 Nordeste 0 -- -- 82
2018-04-20 21:00:00 17 3 Nordeste 18 Sudoeste 0 -- -- 76
2018-04-20 20:00:00 18.5 10 Sudoeste 21 Sudoeste 0 -- -- 71
2018-04-20 19:00:00 19.6 16 Oeste 28 Oeste 0 -- -- 68
2018-04-20 18:00:00 23.1 9 Sur 22 Sur 0 -- -- 52
2018-04-20 17:00:00 24 10 Sudeste 24 Sudeste 0 -- -- 48
2018-04-20 16:00:00 22.7 14 Sudeste 32 Sudeste 0 -- -- 50
2018-04-20 15:00:00 24.4 10 Sudeste 29 Nordeste 0 -- -- 49
2018-04-20 14:00:00 22.5 21 Este 35 Este 0 -- -- 44
2018-04-20 13:00:00 22.3 23 Sudeste 37 Este 0 -- -- 44
2018-04-20 12:00:00 21.9 16 Este 33 Este 0 -- -- 45
2018-04-20 11:00:00 20.1 15 Este 39 Este 0 -- -- 52
2018-04-20 10:00:00 18.1 22 Este 45 Este 0 -- -- 53
2018-04-20 09:00:00 16.6 9 Este 22 Este 0 -- -- 58
2018-04-20 08:00:00 14.3 12 Este 21 Sudeste 0 -- -- 65
2018-04-20 07:00:00 8.9 4 Sudeste 9 Sudeste 0 -- -- 90
2018-04-20 06:00:00 10.8 6 Sudeste 17 Este 0 -- -- 81
2018-04-20 05:00:00 12.7 7 Sudeste 20 Este 0 -- -- 79
2018-04-20 04:00:00 9.8 5 Sudeste 8 Sudeste 0 -- -- 90
2018-04-20 03:00:00 10.5 3 Nordeste 8 Norte 0 -- -- 88
2018-04-20 02:00:00 10.6 4 Nordeste 6 Nordeste 0 -- -- 87
2018-04-20 01:00:00 11.8 2 Nordeste 5 Nordeste 0 -- -- 80
2018-04-20 00:00:00 12.6 3 Este 8 Nordeste 0 -- -- 76
2018-04-19 23:00:00 14.8 4 Nordeste 9 Nordeste 0 -- -- 69
2018-04-19 22:00:00 17.3 4 Este 6 Este 0 -- -- 62
2018-04-19 21:00:00 21.2 4 Este 16 Sudeste 0 -- -- 44
2018-04-19 20:00:00 24.1 11 Sudeste 25 Este 0 -- -- 34
2018-04-19 19:00:00 25.5 13 Sudeste 24 Sudeste 0 -- -- 33
2018-04-19 18:00:00 26.2 11 Sudeste 26 Sudeste 0 -- -- 36
2018-04-19 17:00:00 26.8 14 Sudeste 27 Sur 0 -- -- 37
2018-04-19 16:00:00 27.1 14 Sur 27 Sur 0 -- -- 35
2018-04-19 15:00:00 27 14 Sur 27 Sur 0 -- -- 38
2018-04-19 14:00:00 26.4 10 Sudeste 24 Sur 0 -- -- 29
2018-04-19 13:00:00 23.6 6 Noroeste 13 Noroeste 0 -- -- 54
2018-04-19 12:00:00 21.7 7 Oeste 13 Oeste 0 -- -- 54
2018-04-19 11:00:00 20.2 2 Sur 6 Sudoeste 0 -- -- 52
2018-04-19 10:00:00 15.9 0 Calma 10 Este 0 -- -- 75
2018-04-19 09:00:00 11.3 5 Este 8 Este 0 -- -- 93
2018-04-19 08:00:00 7.8 3 Este 5 Sudeste 0 -- -- 99
2018-04-19 07:00:00 7.7 4 Sudeste 5 Sudeste 0 -- -- 98
2018-04-19 06:00:00 8.1 4 Este 5 Este 0 -- -- 98
2018-04-19 05:00:00 9 5 Sudeste 8 Sudeste 0 -- -- 96
2018-04-19 04:00:00 9.7 2 Sudeste 5 Este 0 -- -- 96
2018-04-19 03:00:00 10.3 4 Este 6 Nordeste 0 -- -- 96
2018-04-19 02:00:00 11.6 3 Este 5 Sudeste 0 -- -- 95
2018-04-19 01:00:00 12.3 2 Este 4 Sur 0 -- -- 93
2018-04-19 00:00:00 14 2 Nordeste 5 Este 0 -- -- 86
2018-04-18 23:00:00 15.4 0 Calma 11 Oeste 0 -- -- 81
2018-04-18 22:00:00 18.4 5 Nordeste 10 Norte 0 -- -- 68
2018-04-18 21:00:00 23 4 Oeste 14 Sur 0 -- -- 53
2018-04-18 20:00:00 26.3 6 Sur 17 Sur 0 -- -- 45
2018-04-18 19:00:00 27.6 6 Sur 17 Sur 0 -- -- 39
2018-04-18 18:00:00 27.7 6 Sudoeste 15 Sudoeste 0 -- -- 40
2018-04-18 17:00:00 27.3 5 Sur 19 Sur 0 -- -- 32
2018-04-18 16:00:00 26.5 5 Oeste 17 Sudoeste 0 -- -- 36
2018-04-18 15:00:00 25.5 6 Norte 15 Oeste 0 -- -- 37
2018-04-18 14:00:00 24.9 5 Noroeste 12 Norte 0 -- -- 40
2018-04-18 13:00:00 24.4 3 Sur 8 Oeste 0 -- -- 41
2018-04-18 12:00:00 22.7 3 Sudoeste 5 Oeste 0 -- -- 41
2018-04-18 11:00:00 19.8 0 Calma 4 Norte 0 -- -- 54
2018-04-18 10:00:00 15.6 0 Calma 8 Este 0 -- -- 74
2018-04-18 09:00:00 9.9 2 Este 7 Este 0 -- -- 98
2018-04-18 08:00:00 6.7 0 Calma 8 Sudeste 0 -- -- 99
2018-04-18 07:00:00 7.3 3 Este 8 Nordeste 0 -- -- 99
2018-04-18 06:00:00 7.3 3 Este 6 Nordeste 0 -- -- 98
2018-04-18 05:00:00 8.7 4 Este 5 Este 0 -- -- 99
2018-04-18 04:00:00 9.2 4 Sudeste 6 Sudeste 0 -- -- 98
2018-04-18 03:00:00 9.7 3 Este 5 Sudeste 0 -- -- 97
2018-04-18 02:00:00 10.6 3 Este 5 Este 0 -- -- 97
2018-04-18 01:00:00 11 2 Este 6 Nordeste 0 -- -- 94
2018-04-18 00:00:00 12.1 2 Nordeste 5 Sudeste 0 -- -- 92
2018-04-17 23:00:00 14.3 3 Este 7 Este 0 -- -- 87
2018-04-17 22:00:00 16.7 0 Calma 8 Norte 0 -- -- 73
2018-04-17 21:00:00 19.7 4 Oeste 13 Noroeste 0 -- -- 60
2018-04-17 20:00:00 21.8 8 Noroeste 17 Oeste 0 -- -- 55
2018-04-17 19:00:00 23.6 11 Oeste 19 Oeste 0 -- -- 50
2018-04-17 18:00:00 23.7 8 Noroeste 17 Oeste 0 -- -- 49
2018-04-17 17:00:00 23.8 10 Oeste 17 Sudoeste 0 -- -- 49
2018-04-17 16:00:00 23.6 8 Sudoeste 17 Sudoeste 0 -- -- 54
2018-04-17 15:00:00 23.1 5 Oeste 12 Sudoeste 0 -- -- 46
2018-04-17 14:00:00 22.1 3 Sur 12 Sudoeste 0 -- -- 47
2018-04-17 13:00:00 20.1 6 Noroeste 9 Oeste 0 -- -- 51
2018-04-17 12:00:00 18.9 4 Oeste 8 Oeste 0 -- -- 54
2018-04-17 11:00:00 16.6 0 Calma 4 Oeste 0 -- -- 71
2018-04-17 10:00:00 11.4 0 Calma 3 Nordeste 0 -- -- 95
2018-04-17 09:00:00 5.8 0 Calma 4 Este 0 -- -- 100
2018-04-17 08:00:00 3.5 0 Calma 4 Sudeste 0 -- -- 100
2018-04-17 07:00:00 3.8 2 Sudeste 5 Este 0 -- -- 100
2018-04-17 06:00:00 3.8 2 Oeste 5 Sudeste 0 -- -- 99
2018-04-17 05:00:00 5.5 4 Este 5 Este 0 -- -- 100
2018-04-17 04:00:00 5.3 3 Este 6 Sudeste 0 -- -- 99
2018-04-17 03:00:00 6 -- -- -- -- 0 -- -- 99
2018-04-17 02:00:00 6.8 3 Sudeste 5 Este 0 -- -- 96
2018-04-17 01:00:00 7.3 3 Este 7 Sudeste 0 -- -- 96
2018-04-17 00:00:00 8.4 2 Este 6 Nordeste 0 -- -- 94
2018-04-16 23:00:00 9.7 2 Nordeste 9 Nordeste 0 -- -- 88
2018-04-16 22:00:00 11.9 7 Nordeste 13 Nordeste 0 -- -- 79
2018-04-16 21:00:00 14.8 3 Norte 11 Noroeste 0 -- -- 67
2018-04-16 20:00:00 16.5 8 Norte 14 Noroeste 0 -- -- 55
2018-04-16 19:00:00 17.9 6 Noroeste 18 Oeste 0 -- -- 52
2018-04-16 18:00:00 18 10 Oeste 28 Sur 0 -- -- 52
2018-04-16 17:00:00 17.6 13 Noroeste 26 Oeste 0 -- -- 55
2018-04-16 16:00:00 17.9 13 Oeste 23 Oeste 0 -- -- 56
2018-04-16 15:00:00 17.5 7 Oeste 24 Noroeste 0 -- -- 58
2018-04-16 14:00:00 16.3 6 Norte 18 Noroeste 0 -- -- 54
2018-04-16 13:00:00 15.4 5 Noroeste 14 Norte 0 -- -- 65
2018-04-16 12:00:00 14.5 3 Oeste 13 Noroeste 0 -- -- 72
2018-04-16 11:00:00 12.7 2 Sur 8 Oeste 0 -- -- 80
2018-04-16 10:00:00 10.7 5 Sudoeste 9 Sudoeste 0 -- -- 89
2018-04-16 09:00:00 8.5 4 Sudoeste 9 Sudoeste 0 -- -- 100
2018-04-16 08:00:00 7.4 4 Norte 7 Oeste 0 -- -- 100
2018-04-16 07:00:00 8.6 2 Sudoeste 6 Oeste 0 -- -- 100
2018-04-16 06:00:00 8.7 5 Sudoeste 8 Sudoeste 0 -- -- 100
2018-04-16 05:00:00 8.6 3 Sudoeste 8 Oeste 0 -- -- 100
2018-04-16 04:00:00 8.5 4 Oeste 6 Noroeste 0.2 -- -- 100
2018-04-16 03:00:00 8.9 2 Oeste 10 Oeste 0 -- -- 100
2018-04-16 02:00:00 9.6 7 Oeste 22 Oeste 0 -- -- 99
2018-04-16 01:00:00 9.9 9 Oeste 19 Oeste 0 -- -- 99
2018-04-16 00:00:00 10 3 Sudoeste 5 Oeste 0.2 -- -- 100
2018-04-15 23:00:00 10.4 3 Sudeste 12 Oeste 2 -- -- 99
2018-04-15 22:00:00 10.2 8 Oeste 23 Oeste 0.8 -- -- 98
2018-04-15 21:00:00 11.2 15 Oeste 33 Oeste 4.2 -- -- 95
2018-04-15 20:00:00 14.8 9 Sudoeste 25 Sur 0.4 -- -- 94
2018-04-15 19:00:00 14.8 13 Sur 29 Sur 0 -- -- 93
2018-04-15 18:00:00 15.5 12 Sur 26 Sur 0 -- -- 89
2018-04-15 17:00:00 15.2 13 Sur 24 Sur 0 -- -- 89
2018-04-15 16:00:00 14.8 10 Sur 26 Sur 0 -- -- 87
2018-04-15 15:00:00 14.7 11 Sur 23 Sur 0 -- -- 85
2018-04-15 14:00:00 13.6 8 Sur 14 Sur 0 -- -- 87
2018-04-15 13:00:00 13.9 5 Sur 16 Sur 0 -- -- 87
2018-04-15 12:00:00 13.2 4 Sur 8 Sudeste 0 -- -- 87
2018-04-15 11:00:00 12.1 0 Calma 7 Sudeste 0 -- -- 93
2018-04-15 10:00:00 11.3 2 Este 6 Este 0 -- -- 91
2018-04-15 09:00:00 9.8 0 Calma 4 Sudeste 0 -- -- 100
2018-04-15 08:00:00 8.4 0 Calma 4 Este 0 -- -- 100
2018-04-15 07:00:00 8 0 Calma 4 Sudeste 0 -- -- 100
2018-04-15 06:00:00 8.2 2 Este 4 Sudeste 0 -- -- 99
2018-04-15 05:00:00 7.8 2 Sur 5 Nordeste 0 -- -- 100
2018-04-15 04:00:00 7.1 2 Sur 5 Sur 0 -- -- 100
2018-04-15 03:00:00 6.3 2 Sudeste 4 Este 0 -- -- 99
2018-04-15 02:00:00 7.2 2 Este 5 Nordeste 0 -- -- 98
2018-04-15 01:00:00 7.8 0 Calma 5 Noroeste 0 -- -- 94
2018-04-15 00:00:00 9.1 3 Noroeste 7 Sudoeste 0 -- -- 95
2018-04-14 23:00:00 9.6 0 Calma 4 Nordeste 0 -- -- 89
2018-04-14 22:00:00 11.4 3 Sudoeste 8 Oeste 0 -- -- 83
2018-04-14 21:00:00 14.4 5 Noroeste 23 Oeste 0 -- -- 67
2018-04-14 20:00:00 16.7 13 Noroeste 22 Oeste 0 -- -- 59
2018-04-14 19:00:00 17.7 13 Noroeste 22 Oeste 0 -- -- 60
2018-04-14 18:00:00 18.1 13 Oeste 22 Oeste 0 -- -- 59
2018-04-14 17:00:00 18 13 Oeste 25 Oeste 0 -- -- 61
2018-04-14 16:00:00 16.8 13 Oeste 25 Sudoeste 0 -- -- 69
2018-04-14 15:00:00 15.8 19 Oeste 30 Oeste 0 -- -- 73
2018-04-14 14:00:00 14.8 16 Oeste 24 Sudoeste 0 -- -- 78
2018-04-14 13:00:00 13.6 10 Oeste 16 Oeste 0 -- -- 83
2018-04-14 12:00:00 11.1 2 Noroeste 7 Sudeste 0 -- -- 89
2018-04-14 11:00:00 9.5 3 Sudeste 6 Sudeste 0 -- -- 96
2018-04-14 10:00:00 7.9 3 Este 6 Este 0 -- -- 100
2018-04-14 09:00:00 7 3 Este 5 Este 0 -- -- 100
2018-04-14 08:00:00 5.7 0 Calma 5 Este 0 -- -- 100
2018-04-14 07:00:00 4.2 3 Nordeste 5 Este 0 -- -- 100
2018-04-14 06:00:00 3.3 2 Sur 5 Sudeste 0 -- -- 100
2018-04-14 05:00:00 4.3 3 Este 5 Sudeste 0 -- -- 100
2018-04-14 04:00:00 3.5 0 Calma 2 Este 0 -- -- 100
2018-04-14 03:00:00 4.6 0 Calma 7 Sudeste 0 -- -- 99
2018-04-14 02:00:00 4.9 3 Sudeste 6 Sudeste 0 -- -- 99
2018-04-14 01:00:00 5.7 3 Este 5 Este 0 -- -- 97
2018-04-14 00:00:00 6.6 6 Este 7 Nordeste 0 -- -- 97
2018-04-13 23:00:00 7.5 0 Calma 4 Norte 0 -- -- 94
2018-04-13 22:00:00 9.2 0 Calma 6 Oeste 0.2 -- -- 87
2018-04-13 21:00:00 12 3 Noroeste 10 Noroeste 0 -- -- 74
2018-04-13 20:00:00 14.6 6 Norte 12 Nordeste 0 -- -- 63
2018-04-13 19:00:00 13.4 2 Sur 27 Norte 0 -- -- 79
2018-04-13 18:00:00 13.4 14 Norte 32 Noroeste 0 -- -- 68
2018-04-13 17:00:00 14.9 12 Noroeste 19 Noroeste 0 -- -- 63
2018-04-13 16:00:00 15.1 8 Noroeste 19 Norte 0 -- -- 57
2018-04-13 15:00:00 14.6 10 Nordeste 25 Este 0 -- -- 60
2018-04-13 14:00:00 14.1 10 Nordeste 17 Este 0 -- -- 61
2018-04-13 13:00:00 13 8 Nordeste 21 Este 0 -- -- 68
2018-04-13 12:00:00 11.9 13 Este 24 Este 0 -- -- 72
2018-04-13 11:00:00 10.7 9 Este 16 Este 0 -- -- 76
2018-04-13 10:00:00 9.9 8 Nordeste 12 Este 0 -- -- 81
2018-04-13 09:00:00 8.1 3 Este 8 Este 0 -- -- 92
2018-04-13 08:00:00 6.9 2 Nordeste 14 Este 0 -- -- 93
2018-04-13 07:00:00 7.1 8 Sudeste 12 Este 0 -- -- 96
2018-04-13 06:00:00 7.7 5 Este 14 Este 0.2 -- -- 92
2018-04-13 05:00:00 6.9 7 Este 11 Este 0 -- -- 98
2018-04-13 04:00:00 6.2 2 Este 4 Este 0 -- -- 100
2018-04-13 03:00:00 5.5 2 Este 4 Este 0 -- -- 100
2018-04-13 02:00:00 4.8 0 Calma 3 Este 0 -- -- 100
2018-04-13 01:00:00 5 0 Calma 5 Nordeste 0 -- -- 98
2018-04-13 00:00:00 5.1 2 Sudeste 5 Este 0 -- -- 97
2018-04-12 23:00:00 5.6 0 Calma 4 Nordeste 0 -- -- 95
2018-04-12 22:00:00 7.4 0 Calma 11 Sudoeste 0 -- -- 91
2018-04-12 21:00:00 8.7 10 Oeste 41 Noroeste 0 -- -- 85
2018-04-12 20:00:00 12.2 18 Oeste 37 Oeste 0 -- -- 72
2018-04-12 19:00:00 12.2 18 Oeste 40 Oeste 0 -- -- 78
2018-04-12 18:00:00 12.6 14 Oeste 28 Sudoeste 0.8 -- -- 87
2018-04-12 17:00:00 11.9 12 Sudoeste 23 Oeste 0.6 -- -- 92
2018-04-12 16:00:00 10.3 5 Noroeste 14 Sudoeste 0.4 -- -- 93
2018-04-12 15:00:00 10.3 8 Sudoeste 66 Sur 5.4 -- -- 94
2018-04-12 14:00:00 11 18 Sudeste 37 Sur 6.6 -- -- 95
2018-04-12 13:00:00 10.7 15 Sur 30 Sudeste 0.8 -- -- 93
2018-04-12 12:00:00 10.8 14 Sur 31 Sur 0 -- -- 84
2018-04-12 11:00:00 11 7 Sudeste 21 Sur 0.6 -- -- 89
2018-04-12 10:00:00 9.7 9 Sur 17 Sudoeste 0.2 -- -- 93
2018-04-12 09:00:00 9 2 Este 4 Este 0 -- -- 97
2018-04-12 08:00:00 8.8 3 Sudoeste 7 Sudoeste 0 -- -- 97
2018-04-12 07:00:00 9.2 2 Este 3 Este 0 -- -- 98
2018-04-12 06:00:00 9 0 Calma 9 Sudoeste 0 -- -- 97
2018-04-12 05:00:00 8.9 2 Sudoeste 7 Oeste 0 -- -- 97
2018-04-12 04:00:00 9 2 Oeste 14 Oeste 0.8 -- -- 97
2018-04-12 03:00:00 9.2 8 Oeste 13 Oeste 0 -- -- 94
2018-04-12 02:00:00 9.4 8 Oeste 15 Oeste 0 -- -- 89
2018-04-12 01:00:00 9.7 10 Oeste 19 Oeste 0 -- -- 86
2018-04-12 00:00:00 9.6 9 Oeste 13 Oeste 0 -- -- 85
2018-04-11 23:00:00 9.4 6 Oeste 17 Oeste 0 -- -- 83
2018-04-11 22:00:00 10 10 Oeste 24 Oeste 0 -- -- 75
2018-04-11 21:00:00 11.7 20 Oeste 36 Noroeste 0 -- -- 68
2018-04-11 20:00:00 13.2 22 Oeste 42 Oeste 0 -- -- 62
2018-04-11 19:00:00 13.2 24 Oeste 43 Noroeste 0 -- -- 60
2018-04-11 18:00:00 13.9 18 Oeste 43 Noroeste 0 -- -- 59
2018-04-11 17:00:00 13.6 18 Noroeste 40 Oeste 0 -- -- 55
2018-04-11 16:00:00 15.1 23 Oeste 41 Noroeste 0 -- -- 47
2018-04-11 15:00:00 13.6 20 Noroeste 44 Oeste 0 -- -- 53
2018-04-11 14:00:00 13.3 21 Oeste 47 Oeste 0 -- -- 57
2018-04-11 13:00:00 12.9 19 Noroeste 44 Noroeste 0 -- -- 62
2018-04-11 12:00:00 11.1 19 Oeste 42 Noroeste 0 -- -- 67
2018-04-11 11:00:00 9.8 19 Noroeste 40 Noroeste 0 -- -- 73
2018-04-11 10:00:00 8.4 18 Noroeste 43 Oeste 0 -- -- 79
2018-04-11 09:00:00 7.4 18 Noroeste 37 Noroeste 0 -- -- 84
2018-04-11 08:00:00 6.9 17 Noroeste 45 Oeste 0 -- -- 87
2018-04-11 07:00:00 6.7 22 Noroeste 42 Oeste 0 -- -- 87
2018-04-11 06:00:00 6.7 18 Oeste 35 Oeste 0.2 -- -- 94
2018-04-11 05:00:00 6.9 17 Oeste 32 Oeste 0 -- -- 92
2018-04-11 04:00:00 6.9 14 Oeste 27 Oeste 0 -- -- 92
2018-04-11 03:00:00 6.8 10 Oeste 22 Oeste 0 -- -- 92
2018-04-11 02:00:00 7 12 Oeste 20 Oeste 0 -- -- 94
2018-04-11 01:00:00 6.9 7 Oeste 19 Oeste 0 -- -- 93
2018-04-11 00:00:00 7 11 Oeste 19 Oeste 0 -- -- 92
2018-04-10 23:00:00 6.8 7 Oeste 38 Oeste 0 -- -- 92
2018-04-10 22:00:00 7.9 22 Oeste 44 Oeste 0 -- -- 84
2018-04-10 21:00:00 8.2 15 Oeste 36 Oeste 0.2 -- -- 84
2018-04-10 20:00:00 10 18 Oeste 48 Oeste 0.2 -- -- 78
2018-04-10 19:00:00 11.1 23 Oeste 42 Oeste 0 -- -- 83
2018-04-10 18:00:00 10.2 18 Noroeste 47 Oeste 1 -- -- 99
2018-04-10 17:00:00 10.2 21 Oeste 42 Oeste 1.4 -- -- 97
2018-04-10 16:00:00 11.5 19 Oeste 37 Oeste 0.4 -- -- 93
2018-04-10 15:00:00 10.9 20 Oeste 39 Oeste 3.6 -- -- 97
2018-04-10 14:00:00 11.4 16 Oeste 33 Sudoeste 2.6 -- -- 95
2018-04-10 13:00:00 10.8 16 Oeste 33 Sudoeste 4.2 -- -- 97
2018-04-10 12:00:00 10.2 9 Sudoeste 23 Sudoeste 3 -- -- 96
2018-04-10 11:00:00 9.1 3 Oeste 17 Sur 1.6 -- -- 97
2018-04-10 10:00:00 8.6 3 Oeste 19 Sur 2 -- -- 96
2018-04-10 09:00:00 8.7 7 Sur 19 Sur 2.2 -- -- 97
2018-04-10 08:00:00 8.3 4 Sudoeste 13 Sudoeste 0.8 -- -- 98
2018-04-10 07:00:00 7.9 0 Calma 3 Este 0 -- -- 96
2018-04-10 06:00:00 7.6 0 Calma 2 Sudoeste 0 -- -- 96
2018-04-10 05:00:00 7.1 0 Calma 3 Nordeste 0 -- -- 97
2018-04-10 04:00:00 6.1 0 Calma 2 Nordeste 0 -- -- 95
2018-04-10 03:00:00 7 0 Calma 7 Oeste 0 -- -- 91
2018-04-10 02:00:00 8.5 4 Oeste 9 Oeste 0 -- -- 87
2018-04-10 01:00:00 8.5 2 Norte 6 Oeste 0 -- -- 89
2018-04-10 00:00:00 8.7 4 Oeste 12 Oeste 0 -- -- 83
2018-04-09 23:00:00 8.6 5 Oeste 13 Oeste 0 -- -- 80
2018-04-09 22:00:00 10.1 8 Oeste 21 Oeste 0 -- -- 72
2018-04-09 21:00:00 12.2 12 Oeste 22 Oeste 0 -- -- 68
2018-04-09 20:00:00 12.6 11 Oeste 28 Oeste 0 -- -- 67
2018-04-09 19:00:00 13.8 12 Oeste 26 Oeste 0 -- -- 61
2018-04-09 18:00:00 14.5 16 Oeste 26 Oeste 0 -- -- 60
2018-04-09 17:00:00 14.6 14 Oeste 31 Oeste 0 -- -- 61
2018-04-09 16:00:00 12.9 16 Noroeste 33 Oeste 0 -- -- 68
2018-04-09 15:00:00 13.8 15 Oeste 32 Oeste 0 -- -- 60
2018-04-09 14:00:00 12.9 17 Oeste 27 Oeste 0 -- -- 61
2018-04-09 13:00:00 12 12 Oeste 25 Oeste 0 -- -- 63
2018-04-09 12:00:00 10.6 5 Oeste 16 Noroeste 0 -- -- 71
2018-04-09 11:00:00 8.9 3 Norte 5 Noroeste 0 -- -- 79
2018-04-09 10:00:00 6.4 2 Noroeste 5 Norte 0 -- -- 90
2018-04-09 09:00:00 3.6 2 Sudeste 5 Sur 0 -- -- 100
2018-04-09 08:00:00 2.3 0 Calma 4 Sur 0 -- -- 99
2018-04-09 07:00:00 3.6 0 Calma 3 Oeste 0 -- -- 99
2018-04-09 06:00:00 4.6 4 Oeste 10 Oeste 0 -- -- 98
2018-04-09 05:00:00 4.4 8 Oeste 11 Oeste 0 -- -- 98
2018-04-09 04:00:00 5 4 Oeste 11 Oeste 0 -- -- 98
2018-04-09 03:00:00 5.6 5 Oeste 15 Oeste 0 -- -- 97
2018-04-09 02:00:00 5.7 7 Oeste 18 Oeste 0 -- -- 97
2018-04-09 01:00:00 6.9 9 Oeste 18 Oeste 0 -- -- 96
2018-04-09 00:00:00 7.6 11 Oeste 25 Noroeste 0 -- -- 93
2018-04-08 23:00:00 8.1 3 Sudoeste 6 Sudoeste 0 -- -- 96
2018-04-08 22:00:00 7.9 5 Oeste 49 Oeste 0.4 -- -- 95
2018-04-08 21:00:00 8.4 23 Oeste 44 Oeste 1 -- -- 89
2018-04-08 20:00:00 12.5 13 Oeste 31 Oeste 0 -- -- 76
2018-04-08 19:00:00 14.1 17 Oeste 36 Oeste 0 -- -- 65
2018-04-08 18:00:00 15.7 20 Oeste 36 Oeste 0 -- -- 60
2018-04-08 17:00:00 16.2 17 Sudoeste 32 Sudoeste 0 -- -- 60
2018-04-08 16:00:00 15.3 17 Oeste 34 Oeste 0 -- -- 60
2018-04-08 15:00:00 15.3 13 Oeste 27 Sudoeste 0 -- -- 56
2018-04-08 14:00:00 13.8 13 Oeste 30 Oeste 0 -- -- 70
2018-04-08 13:00:00 14.1 20 Oeste 31 Oeste 0 -- -- 68
2018-04-08 12:00:00 11.9 15 Noroeste 27 Noroeste 0 -- -- 78
2018-04-08 11:00:00 11.2 15 Noroeste 25 Oeste 0 -- -- 83
2018-04-08 10:00:00 9.8 10 Noroeste 24 Noroeste 0 -- -- 88
2018-04-08 09:00:00 8.9 11 Oeste 27 Oeste 0 -- -- 91
2018-04-08 08:00:00 8.9 9 Noroeste 26 Oeste 0 -- -- 91
2018-04-08 07:00:00 9.1 11 Noroeste 29 Noroeste 0 -- -- 92
2018-04-08 06:00:00 9.2 13 Noroeste 31 Oeste 0 -- -- 92
2018-04-08 05:00:00 9.1 8 Noroeste 28 Noroeste 0 -- -- 93
2018-04-08 04:00:00 8.9 13 Oeste 21 Noroeste 0 -- -- 98
2018-04-08 03:00:00 8.9 6 Oeste 17 Oeste 0 -- -- 99
2018-04-08 02:00:00 9.2 7 Oeste 12 Oeste 0 -- -- 100
2018-04-08 01:00:00 9.2 0 Calma 4 Noroeste 0.2 -- -- 100
2018-04-08 00:00:00 9.1 0 Calma 3 Nordeste 0 -- -- 99
2018-04-07 23:00:00 9.1 0 Calma 5 Noroeste 1.2 -- -- 98
2018-04-07 22:00:00 9.5 6 Norte 12 Oeste 1.2 -- -- 97
2018-04-07 21:00:00 9.4 0 Calma 10 Este 3 -- -- 97
2018-04-07 20:00:00 9.8 3 Este 5 Nordeste 0 -- -- 93
2018-04-07 19:00:00 8.5 2 Nordeste 39 Oeste 4 -- -- 97
2018-04-07 18:00:00 13.1 9 Sur 26 Sur 1.4 -- -- 80
2018-04-07 17:00:00 13.5 3 Oeste 17 Este 0 -- -- 75
2018-04-07 16:00:00 12 6 Sudeste 13 Sudeste 1.6 -- -- 85
2018-04-07 15:00:00 9.2 4 Sur 40 Oeste 4.2 -- -- 91
2018-04-07 14:00:00 15.4 12 Sur 30 Sudoeste 0 -- -- 67
2018-04-07 13:00:00 14.6 12 Sur 24 Sur 0 -- -- 73
2018-04-07 12:00:00 13.7 12 Sudoeste 19 Sudoeste 0 -- -- 78
2018-04-07 11:00:00 10.6 3 Este 5 Sudeste 0 -- -- 85
2018-04-07 10:00:00 9 3 Nordeste 5 Este 0 -- -- 99
2018-04-07 09:00:00 7.7 0 Calma 4 Sur 0 -- -- 100
2018-04-07 08:00:00 7.7 0 Calma 5 Norte 0 -- -- 99
2018-04-07 07:00:00 7.8 0 Calma 5 Nordeste 0 -- -- 99
2018-04-07 06:00:00 8 4 Nordeste 5 Nordeste 0 -- -- 99
2018-04-07 05:00:00 8.3 3 Nordeste 8 Este 0 -- -- 98
2018-04-07 04:00:00 8.7 2 Noroeste 12 Este 0.2 -- -- 96
2018-04-07 03:00:00 9.2 10 Este 19 Este 1 -- -- 96
2018-04-07 02:00:00 9.6 6 Sudeste 12 Sudeste 2.4 -- -- 95
2018-04-07 01:00:00 10.3 4 Noroeste 11 Noroeste 3 -- -- 97
2018-04-07 00:00:00 11.1 0 Calma 3 Sur 1.6 -- -- 97
2018-04-06 23:00:00 11.2 0 Calma 8 Sudeste 1.6 -- -- 97
2018-04-06 22:00:00 11.5 2 Sudeste 4 Sudeste 0.8 -- -- 96
2018-04-06 21:00:00 11.2 3 Oeste 18 Noroeste 1.4 -- -- 96
2018-04-06 20:00:00 12.3 16 Oeste 30 Oeste 0 -- -- 86
2018-04-06 19:00:00 15.1 18 Oeste 36 Oeste 0 -- -- 72
2018-04-06 18:00:00 20.2 20 Sur 37 Sur 0 -- -- 49
2018-04-06 17:00:00 20.2 24 Sudoeste 47 Sudoeste 0 -- -- 59
2018-04-06 16:00:00 20.7 23 Sur 41 Sur 0 -- -- 57
2018-04-06 15:00:00 21.5 24 Sur 37 Sur 0 -- -- 56
2018-04-06 14:00:00 20.7 15 Sudeste 38 Sudoeste 0 -- -- 54
2018-04-06 13:00:00 19.5 16 Sur 28 Sudoeste 0 -- -- 57
2018-04-06 12:00:00 18.4 16 Sur 25 Sur 0 -- -- 59
2018-04-06 11:00:00 16.8 4 Sudoeste 11 Sudoeste 0 -- -- 63
2018-04-06 10:00:00 11.3 0 Calma 5 Sudeste 0 -- -- 88
2018-04-06 09:00:00 6.5 4 Este 6 Este 0 -- -- 98
2018-04-06 08:00:00 5.1 6 Este 7 Este 0 -- -- 97
2018-04-06 07:00:00 4.7 3 Este 5 Este 0 -- -- 97
2018-04-06 06:00:00 5.5 4 Este 5 Este 0 -- -- 96
2018-04-06 05:00:00 5.6 3 Sudeste 4 Sudeste 0 -- -- 95
2018-04-06 04:00:00 6.3 0 Calma 4 Sudeste 0 -- -- 96
2018-04-06 03:00:00 6.9 3 Nordeste 4 Nordeste 0 -- -- 95
2018-04-06 02:00:00 7.2 0 Calma 4 Nordeste 0 -- -- 92
2018-04-06 01:00:00 9.2 2 Nordeste 9 Oeste 0 -- -- 87
2018-04-06 00:00:00 10.2 4 Este 15 Oeste 0 -- -- 83
2018-04-05 23:00:00 12.7 2 Nordeste 10 Norte 0 -- -- 75
2018-04-05 22:00:00 15 3 Nordeste 9 Norte 0 -- -- 66
2018-04-05 21:00:00 19.3 2 Este 7 Sudoeste 0 -- -- 54
2018-04-05 20:00:00 20.9 3 Sudoeste 8 Sudoeste 0 -- -- 45
2018-04-05 19:00:00 22.2 4 Sur 16 Sur 0 -- -- 48
2018-04-05 18:00:00 23.7 8 Sur 15 Sur 0 -- -- 41
2018-04-05 17:00:00 24.1 4 Sudeste 12 Sudeste 0 -- -- 38
2018-04-05 16:00:00 23.2 5 Oeste 14 Oeste 0 -- -- 42
2018-04-05 15:00:00 23.1 0 Calma 14 Sudeste 0 -- -- 44
2018-04-05 14:00:00 22.1 4 Sur 14 Sur 0 -- -- 38
2018-04-05 13:00:00 21.8 5 Sur 22 Sudeste 0 -- -- 36
2018-04-05 12:00:00 19.7 4 Este 21 Este 0 -- -- 48
2018-04-05 11:00:00 17.1 6 Este 12 Este 0 -- -- 57
2018-04-05 10:00:00 12 2 Este 6 Este 0 -- -- 82
2018-04-05 09:00:00 6.7 2 Sudeste 6 Sudeste 0 -- -- 100
2018-04-05 08:00:00 4.4 4 Sudeste 8 Sudeste 0 -- -- 100
2018-04-05 07:00:00 4.2 3 Este 6 Sudeste 0 -- -- 99
2018-04-05 06:00:00 4.6 3 Sudeste 6 Sudeste 0 -- -- 99
2018-04-05 05:00:00 4.7 4 Sudeste 6 Sudeste 0 -- -- 98
2018-04-05 04:00:00 4.9 3 Sudeste 6 Sudeste 0 -- -- 97
2018-04-05 03:00:00 5.3 2 Sudeste 6 Sudeste 0 -- -- 96
2018-04-05 02:00:00 6.5 0 Calma 7 Este 0 -- -- 94
2018-04-05 01:00:00 6.9 0 Calma 7 Este 0 -- -- 92
2018-04-05 00:00:00 8.4 3 Este 6 Este 0 -- -- 88
2018-04-04 23:00:00 9.1 0 Calma 6 Este 0 -- -- 85
2018-04-04 22:00:00 11.4 4 Nordeste 7 Norte 0 -- -- 76
2018-04-04 21:00:00 14.1 5 Oeste 15 Oeste 0 -- -- 59
2018-04-04 20:00:00 16.7 12 Oeste 24 Oeste 0 -- -- 50
2018-04-04 19:00:00 17 12 Oeste 26 Oeste 0 -- -- 59
2018-04-04 18:00:00 17.5 13 Noroeste 27 Oeste 0 -- -- 57
2018-04-04 17:00:00 18.2 15 Noroeste 33 Oeste 0 -- -- 54
2018-04-04 16:00:00 18.3 19 Oeste 36 Sudoeste 0 -- -- 52
2018-04-04 15:00:00 18.4 21 Oeste 36 Oeste 0 -- -- 54
2018-04-04 14:00:00 16.8 16 Oeste 30 Sudoeste 0 -- -- 63
2018-04-04 13:00:00 16.9 10 Oeste 32 Oeste 0 -- -- 62
2018-04-04 12:00:00 15.4 16 Oeste 32 Oeste 0 -- -- 70
2018-04-04 11:00:00 13.6 21 Oeste 30 Oeste 0 -- -- 78
2018-04-04 10:00:00 12.1 10 Oeste 18 Oeste 0 -- -- 88
2018-04-04 09:00:00 10.8 2 Noroeste 8 Sudoeste 0 -- -- 93
2018-04-04 08:00:00 10.5 3 Oeste 7 Oeste 0 -- -- 94
2018-04-04 07:00:00 10.5 0 Calma 9 Oeste 0 -- -- 94
2018-04-04 06:00:00 10.6 5 Oeste 10 Oeste 0 -- -- 93
2018-04-04 05:00:00 10.7 5 Oeste 12 Oeste 0 -- -- 92
2018-04-04 04:00:00 10.5 6 Oeste 14 Oeste 0 -- -- 91
2018-04-04 03:00:00 11.1 9 Sudoeste 19 Sudoeste 0 -- -- 88
2018-04-04 02:00:00 11.4 8 Sudoeste 17 Sudoeste 0 -- -- 86
2018-04-04 01:00:00 11.6 11 Sudoeste 24 Sudoeste 0 -- -- 83
2018-04-04 00:00:00 12.1 8 Sudoeste 27 Sudoeste 0 -- -- 80
2018-04-03 23:00:00 12.4 4 Oeste 12 Oeste 0 -- -- 77
2018-04-03 22:00:00 12.6 8 Sudoeste 19 Oeste 0 -- -- 73
2018-04-03 21:00:00 13.7 11 Oeste 26 Oeste 0 -- -- 66
2018-04-03 20:00:00 15.6 17 Oeste 36 Oeste 0 -- -- 58
2018-04-03 19:00:00 17.3 27 Oeste 46 Oeste 0 -- -- 49
2018-04-03 18:00:00 18 21 Oeste 40 Sudoeste 0 -- -- 59
2018-04-03 17:00:00 19.8 19 Oeste 35 Sudoeste 0 -- -- 52
2018-04-03 16:00:00 19.2 19 Sudoeste 38 Sudoeste 0 -- -- 55
2018-04-03 15:00:00 19.1 20 Sudoeste 43 Oeste 0 -- -- 55
2018-04-03 14:00:00 17.2 15 Oeste 33 Oeste 0 -- -- 62
2018-04-03 13:00:00 16.9 21 Oeste 37 Oeste 0 -- -- 60
2018-04-03 12:00:00 15.2 13 Sudoeste 28 Sudoeste 0 -- -- 75
2018-04-03 11:00:00 14.2 13 Sur 22 Sudoeste 0 -- -- 85
2018-04-03 10:00:00 12.4 10 Sur 17 Sudoeste 0 -- -- 95
2018-04-03 09:00:00 10.3 0 Calma 4 Norte 0 -- -- 100
2018-04-03 08:00:00 10.1 0 Calma 2 Este 0 -- -- 100
2018-04-03 07:00:00 9.7 0 Calma 2 Sur 0 -- -- 100
2018-04-03 06:00:00 9.4 0 Calma 6 Este 0 -- -- 100
2018-04-03 05:00:00 9.2 2 Este 4 Este 0 -- -- 100
2018-04-03 04:00:00 8.5 0 Calma 3 Nordeste 0 -- -- 98
2018-04-03 03:00:00 10.3 0 Calma 3 Sudoeste 0 -- -- 99
2018-04-03 02:00:00 11.3 2 Sudoeste 8 Oeste 0 -- -- 100
2018-04-03 01:00:00 10.6 0 Calma 4 Noroeste 0 -- -- 98
2018-04-03 00:00:00 11.1 0 Calma 4 Norte 0 -- -- 99
2018-04-02 23:00:00 11.9 0 Calma 3 Este 0 -- -- 97
2018-04-02 22:00:00 13.3 2 Este 9 Nordeste 0 -- -- 96
2018-04-02 21:00:00 13.5 4 Este 21 Sur 2.4 -- -- 94
2018-04-02 20:00:00 14.2 10 Sur 27 Sur 0 -- -- 88
2018-04-02 19:00:00 14.5 12 Sur 26 Sur 0 -- -- 87
2018-04-02 18:00:00 15 9 Sudoeste 31 Sur 0.4 -- -- 85
2018-04-02 17:00:00 16.5 17 Sur 34 Sudoeste 0 -- -- 72
2018-04-02 16:00:00 17 18 Sur 32 Sudoeste 0 -- -- 68
2018-04-02 15:00:00 19.5 17 Sur 35 Sur 0 -- -- 60
2018-04-02 14:00:00 19.8 16 Sur 30 Sudoeste 0 -- -- 57
2018-04-02 13:00:00 18.7 14 Sur 28 Sur 0 -- -- 61
2018-04-02 12:00:00 17.1 16 Sudeste 30 Sur 0 -- -- 65
2018-04-02 11:00:00 14.6 15 Sudeste 28 Sudeste 0 -- -- 77
2018-04-02 10:00:00 13.1 11 Este 18 Este 0 -- -- 80
2018-04-02 09:00:00 11.9 6 Sudeste 15 Sudeste 0 -- -- 82
2018-04-02 08:00:00 10.9 10 Este 19 Este 0 -- -- 81
2018-04-02 07:00:00 10.3 8 Este 14 Este 0 -- -- 83
2018-04-02 06:00:00 5.8 3 Nordeste 5 Nordeste 0 -- -- 92
2018-04-02 05:00:00 5.9 0 Calma 9 Nordeste 0 -- -- 93
2018-04-02 04:00:00 6.7 0 Calma 5 Sudoeste 0 -- -- 91
2018-04-02 03:00:00 7.8 0 Calma 12 Sudeste 0 -- -- 89
2018-04-02 02:00:00 8 3 Sudeste 8 Sudeste 0 -- -- 92
2018-04-02 01:00:00 8.8 0 Calma 6 Sur 0 -- -- 89
2018-04-02 00:00:00 9.5 3 Nordeste 8 Sur 0 -- -- 88
2018-04-01 23:00:00 11.1 3 Este 6 Norte 0 -- -- 82
2018-04-01 22:00:00 13.5 3 Nordeste 5 Nordeste 0 -- -- 73
2018-04-01 21:00:00 16.6 0 Calma 7 Sudoeste 0 -- -- 60
2018-04-01 20:00:00 19 4 Oeste 18 Sur 0 -- -- 47
2018-04-01 19:00:00 20.6 12 Sudoeste 20 Sudoeste 0 -- -- 44
2018-04-01 18:00:00 21.6 10 Sudoeste 19 Sudoeste 0 -- -- 38
2018-04-01 17:00:00 23.2 9 Sur 21 Sur 0 -- -- 37
2018-04-01 16:00:00 23.9 6 Sur 16 Sur 0 -- -- 34
2018-04-01 15:00:00 22.5 8 Sudeste 22 Sudeste 0 -- -- 33
2018-04-01 14:00:00 21.7 11 Sudeste 22 Sudeste 0 -- -- 36
2018-04-01 13:00:00 19.9 12 Sudeste 28 Sur 0 -- -- 38
2018-04-01 12:00:00 17.8 7 Sur 16 Sur 0 -- -- 46
2018-04-01 11:00:00 14.1 4 Oeste 6 Oeste 0 -- -- 62
2018-04-01 10:00:00 9.2 0 Calma 5 Sudeste 0 -- -- 86
2018-04-01 09:00:00 4.7 2 Nordeste 7 Sur 0 -- -- 100
2018-04-01 08:00:00 3.4 2 Este 8 Sudeste 0 -- -- 99
2018-04-01 07:00:00 3.3 3 Este 5 Sudeste 0 -- -- 98
2018-04-01 06:00:00 3.8 2 Este 6 Sudeste 0 -- -- 97
2018-04-01 05:00:00 4.1 3 Este 5 Sudeste 0 -- -- 97
2018-04-01 04:00:00 4.4 5 Sudeste 7 Este 0 -- -- 96
2018-04-01 03:00:00 5 2 Sudeste 5 Sur 0 -- -- 96
2018-04-01 02:00:00 5.5 0 Calma 4 Norte 0 -- -- 94
2018-04-01 01:00:00 6.2 2 Sudeste 6 Nordeste 0 -- -- 91
2018-04-01 00:00:00 7 4 Nordeste 6 Nordeste 0 -- -- 88
2018-03-31 23:00:00 8.2 0 Calma 6 Norte 0 -- -- 84
2018-03-31 22:00:00 10 4 Nordeste 8 Norte 0 -- -- 74
2018-03-31 21:00:00 12.3 3 Nordeste 9 Noroeste 0 -- -- 65
2018-03-31 20:00:00 15.1 5 Norte 12 Oeste 0 -- -- 53
2018-03-31 19:00:00 16 8 Noroeste 19 Oeste 0 -- -- 49
2018-03-31 18:00:00 16.1 12 Noroeste 25 Oeste 0 -- -- 47
2018-03-31 17:00:00 16.1 8 Noroeste 23 Noroeste 0 -- -- 53
2018-03-31 16:00:00 15.3 13 Noroeste 27 Noroeste 0 -- -- 51
2018-03-31 15:00:00 14.6 14 Noroeste 30 Oeste 0 -- -- 54
2018-03-31 14:00:00 13.8 16 Noroeste 29 Noroeste 0 -- -- 56
2018-03-31 13:00:00 13.2 12 Norte 29 Norte 0 -- -- 61
2018-03-31 12:00:00 12.6 12 Noroeste 25 Norte 0 -- -- 65
2018-03-31 11:00:00 10.4 10 Oeste 22 Oeste 0 -- -- 78
2018-03-31 10:00:00 7.3 0 Calma 2 Sudeste 0 -- -- 100
2018-03-31 09:00:00 2.4 0 Calma 2 Sudeste 0 -- -- 100
2018-03-31 08:00:00 2.3 0 Calma 5 Sudeste 0 -- -- 99
2018-03-31 07:00:00 2.5 2 Sudeste 5 Sudeste 0 -- -- 99
2018-03-31 06:00:00 3.5 0 Calma 3 Oeste 0 -- -- 99
2018-03-31 05:00:00 5.1 0 Calma 8 Oeste 0 -- -- 97
2018-03-31 04:00:00 6.6 5 Oeste 12 Oeste 0 -- -- 97
2018-03-31 03:00:00 7 6 Oeste 14 Oeste 0 -- -- 96
2018-03-31 02:00:00 7.8 2 Noroeste 12 Oeste 0 -- -- 96
2018-03-31 01:00:00 8.3 7 Oeste 17 Oeste 0 -- -- 94
2018-03-31 00:00:00 8.7 12 Oeste 34 Sudoeste 0 -- -- 92
2018-03-30 23:00:00 9.5 21 Oeste 39 Oeste 0.2 -- -- 89
2018-03-30 22:00:00 9.8 12 Oeste 36 Oeste 0 -- -- 85
2018-03-30 21:00:00 10 16 Oeste 49 Oeste 0 -- -- 82
2018-03-30 20:00:00 11.6 24 Oeste 52 Oeste 0 -- -- 64
2018-03-30 19:00:00 13.5 28 Oeste 48 Oeste 0 -- -- 53
2018-03-30 18:00:00 14.7 28 Oeste 48 Oeste 0 -- -- 46
2018-03-30 17:00:00 14.6 27 Oeste 60 Oeste 0 -- -- 53
2018-03-30 16:00:00 13.6 19 Oeste 50 Oeste 0 -- -- 58
2018-03-30 15:00:00 13 17 Oeste 40 Oeste 0 -- -- 58
2018-03-30 14:00:00 11.5 24 Oeste 38 Oeste 0 -- -- 60
2018-03-30 13:00:00 11.3 17 Oeste 30 Oeste 0 -- -- 64
2018-03-30 12:00:00 10.2 13 Oeste 25 Oeste 0 -- -- 68
2018-03-30 11:00:00 8.7 8 Noroeste 23 Oeste 0 -- -- 82
2018-03-30 10:00:00 8.8 9 Noroeste 17 Noroeste 0 -- -- 86
2018-03-30 09:00:00 8 6 Oeste 21 Noroeste 0 -- -- 92
2018-03-30 08:00:00 8.3 7 Noroeste 22 Oeste 0 -- -- 89
2018-03-30 07:00:00 8.6 9 Oeste 14 Oeste 0 -- -- 97
2018-03-30 06:00:00 8.5 3 Oeste 8 Oeste 0.8 -- -- 97
2018-03-30 05:00:00 8.7 3 Noroeste 11 Noroeste 0.2 -- -- 94
2018-03-30 04:00:00 8.7 7 Oeste 16 Sudoeste 0 -- -- 92
2018-03-30 03:00:00 8.3 3 Norte 10 Oeste 0 -- -- 91
2018-03-30 02:00:00 7.4 0 Calma 5 Oeste 0 -- -- 91
2018-03-30 01:00:00 8 4 Este 5 Sudeste 0 -- -- 86
2018-03-30 00:00:00 7.2 0 Calma 8 Oeste 0 -- -- 87
2018-03-29 23:00:00 8.3 8 Oeste 16 Oeste 0 -- -- 78
2018-03-29 22:00:00 9.4 10 Oeste 17 Oeste 0 -- -- 70
2018-03-29 21:00:00 10.5 11 Oeste 37 Oeste 0 -- -- 65
2018-03-29 20:00:00 12.9 13 Oeste 31 Oeste 0 -- -- 57
2018-03-29 19:00:00 13.6 15 Oeste 32 Oeste 0 -- -- 57
2018-03-29 18:00:00 14.3 15 Oeste 39 Oeste 0 -- -- 53
2018-03-29 17:00:00 13.8 14 Oeste 27 Sudoeste 0 -- -- 59
2018-03-29 16:00:00 13.3 12 Noroeste 26 Noroeste 0 -- -- 64
2018-03-29 15:00:00 12.3 15 Noroeste 28 Oeste 0 -- -- 63
2018-03-29 14:00:00 12.5 14 Noroeste 26 Oeste 0 -- -- 64
2018-03-29 13:00:00 11.5 13 Noroeste 25 Noroeste 0 -- -- 67
2018-03-29 12:00:00 10.6 14 Noroeste 26 Noroeste 0 -- -- 68
2018-03-29 11:00:00 9.8 10 Norte 27 Noroeste 0 -- -- 70
2018-03-29 10:00:00 9.7 15 Noroeste 28 Noroeste 0 -- -- 75
2018-03-29 09:00:00 8.8 5 Noroeste 24 Norte 0 -- -- 80
2018-03-29 08:00:00 10.2 12 Noroeste 23 Noroeste 0 -- -- 86
2018-03-29 07:00:00 10.8 4 Noroeste 22 Noroeste 0 -- -- 86
2018-03-29 06:00:00 11 7 Noroeste 18 Norte 0 -- -- 88
2018-03-29 05:00:00 11 5 Noroeste 11 Noroeste 0 -- -- 88
2018-03-29 04:00:00 10.7 7 Noroeste 16 Noroeste 0 -- -- 89
2018-03-29 03:00:00 10.9 7 Noroeste 16 Oeste 0 -- -- 87
2018-03-29 02:00:00 11.2 3 Sudoeste 15 Noroeste 0 -- -- 84
2018-03-29 01:00:00 11.9 11 Noroeste 32 Norte 0 -- -- 79
2018-03-29 00:00:00 12.4 17 Norte 39 Norte 0 -- -- 78
2018-03-28 23:00:00 13.5 14 Norte 29 Norte 0 -- -- 75
2018-03-28 22:00:00 14.1 8 Oeste 12 Oeste 0 -- -- 65
2018-03-28 21:00:00 15.8 6 Oeste 24 Oeste 0 -- -- 56
2018-03-28 20:00:00 18 9 Noroeste 27 Oeste 0 -- -- 46
2018-03-28 19:00:00 20.7 15 Oeste 27 Oeste 0 -- -- 37
2018-03-28 18:00:00 21.5 16 Oeste 29 Oeste 0 -- -- 36
2018-03-28 17:00:00 21.7 14 Noroeste 26 Oeste 0 -- -- 33
2018-03-28 16:00:00 21.7 14 Norte 24 Norte 0 -- -- 31
2018-03-28 15:00:00 21.4 12 Norte 23 Norte 0 -- -- 35
2018-03-28 14:00:00 21.4 10 Norte 24 Norte 0 -- -- 31
2018-03-28 13:00:00 20.7 13 Norte 20 Norte 0 -- -- 30
2018-03-28 12:00:00 17.6 5 Oeste 8 Oeste 0 -- -- 56
2018-03-28 11:00:00 13.4 0 Calma 4 Oeste 0 -- -- 65
2018-03-28 10:00:00 8.8 0 Calma 5 Sudeste 0 -- -- 90
2018-03-28 09:00:00 4.4 3 Sudeste 4 Sudeste 0 -- -- 100
2018-03-28 08:00:00 3.8 3 Este 4 Sudeste 0 -- -- 99
2018-03-28 07:00:00 3.8 2 Nordeste 6 Nordeste 0 -- -- 97
2018-03-28 06:00:00 4.1 0 Calma 5 Nordeste 0 -- -- 94
2018-03-28 05:00:00 5.4 3 Sudeste 6 Sudeste 0 -- -- 94
2018-03-28 04:00:00 6.5 0 Calma 6 Sudeste 0 -- -- 92
2018-03-28 03:00:00 7.5 3 Sudeste 8 Este 0 -- -- 90
2018-03-28 02:00:00 8.3 3 Este 8 Nordeste 0 -- -- 89
2018-03-28 01:00:00 9.8 6 Sudeste 10 Sudeste 0 -- -- 84
2018-03-28 00:00:00 10.6 2 Este 14 Sur 0 -- -- 82
2018-03-27 23:00:00 12.3 5 Este 9 Este 0 -- -- 75
2018-03-27 22:00:00 14.2 5 Norte 10 Nordeste 0 -- -- 67
2018-03-27 21:00:00 18.6 0 Calma 18 Noroeste 0 -- -- 51
2018-03-27 20:00:00 21.4 12 Norte 23 Norte 0 -- -- 39
2018-03-27 19:00:00 22 13 Norte 31 Norte 0 -- -- 44
2018-03-27 18:00:00 22 13 Norte 28 Noroeste 0 -- -- 45
2018-03-27 17:00:00 21.6 14 Noroeste 32 Noroeste 0 -- -- 48
2018-03-27 16:00:00 21.2 16 Norte 41 Noroeste 0 -- -- 45
2018-03-27 15:00:00 20.7 15 Norte 27 Norte 0 -- -- 46
2018-03-27 14:00:00 20.3 10 Norte 28 Norte 0 -- -- 39
2018-03-27 13:00:00 19.2 10 Norte 18 Nordeste 0 -- -- 41
2018-03-27 12:00:00 16.4 2 Noroeste 6 Noroeste 0 -- -- 63
2018-03-27 11:00:00 11.6 0 Calma 5 Sur 0 -- -- 85
2018-03-27 10:00:00 7.6 0 Calma 3 Norte 0 -- -- 99
2018-03-27 09:00:00 3.1 0 Calma 5 Nordeste 0 -- -- 99
2018-03-27 08:00:00 2.6 2 Nordeste 5 Sur 0 -- -- 98
2018-03-27 07:00:00 3.5 2 Sudeste 5 Este 0 -- -- 98
2018-03-27 06:00:00 3.4 2 Este 6 Sur 0 -- -- 97
2018-03-27 05:00:00 4.2 2 Nordeste 5 Sudeste 0 -- -- 97
2018-03-27 04:00:00 4.4 0 Calma 4 Sudeste 0 -- -- 95
2018-03-27 03:00:00 5 4 Este 6 Sur 0 -- -- 95
2018-03-27 02:00:00 5.7 0 Calma 6 Este 0 -- -- 93
2018-03-27 01:00:00 5.9 0 Calma 5 Este 0 -- -- 89
2018-03-27 00:00:00 7.3 0 Calma 5 Nordeste 0 -- -- 84
2018-03-26 23:00:00 9 5 Nordeste 9 Nordeste 0 -- -- 78
2018-03-26 22:00:00 10.8 0 Calma 12 Norte 0 -- -- 71
2018-03-26 21:00:00 14.2 5 Noroeste 19 Noroeste 0 -- -- 51
2018-03-26 20:00:00 16 8 Noroeste 22 Noroeste 0 -- -- 49
2018-03-26 19:00:00 17.1 9 Noroeste 23 Noroeste 0 -- -- 46
2018-03-26 18:00:00 17.3 10 Norte 22 Noroeste 0 -- -- 48
2018-03-26 17:00:00 17 12 Norte 27 Noroeste 0 -- -- 42
2018-03-26 16:00:00 16.7 12 Norte 24 Norte 0 -- -- 46
2018-03-26 15:00:00 16 9 Norte 26 Norte 0 -- -- 47
2018-03-26 14:00:00 15.4 10 Norte 21 Norte 0 -- -- 60
2018-03-26 13:00:00 14.1 9 Norte 17 Noroeste 0 -- -- 57
2018-03-26 12:00:00 12.5 10 Nordeste 18 Nordeste 0 -- -- 56
2018-03-26 11:00:00 10.7 9 Nordeste 15 Nordeste 0 -- -- 65
2018-03-26 10:00:00 7.2 4 Oeste 9 Sudoeste 0 -- -- 94
2018-03-26 09:00:00 2.8 0 Calma 6 Noroeste 0 -- -- 99
2018-03-26 08:00:00 2 3 Oeste 6 Norte 0 -- -- 97
2018-03-26 07:00:00 2.5 0 Calma 2 Oeste 0 -- -- 96
2018-03-26 06:00:00 3.4 0 Calma 4 Nordeste 0 -- -- 93
2018-03-26 05:00:00 4.9 0 Calma 10 Sur 0 -- -- 91
2018-03-26 04:00:00 6.5 0 Calma 6 Noroeste 0 -- -- 87
2018-03-26 03:00:00 6.2 0 Calma 6 Nordeste 0 -- -- 88
2018-03-26 02:00:00 7.7 3 Sudeste 11 Noroeste 0 -- -- 81
2018-03-26 01:00:00 8.7 6 Noroeste 19 Norte 0 -- -- 78
2018-03-26 00:00:00 9.5 9 Noroeste 23 Oeste 0 -- -- 75
2018-03-25 23:00:00 10.8 13 Noroeste 28 Noroeste 0 -- -- 69
2018-03-25 22:00:00 11.5 12 Noroeste 24 Norte 0 -- -- 67
2018-03-25 21:00:00 13 13 Noroeste 21 Noroeste 0 -- -- 57
2018-03-25 20:00:00 14.1 10 Norte 28 Norte 0 -- -- 54
2018-03-25 19:00:00 14.5 16 Norte 39 Norte 0 -- -- 47
2018-03-25 18:00:00 14.5 19 Norte 40 Noroeste 0 -- -- 55
2018-03-25 17:00:00 14.1 26 Norte 42 Norte 0 -- -- 60
2018-03-25 16:00:00 13.5 22 Norte 41 Noroeste 0 -- -- 64
2018-03-25 15:00:00 12.9 17 Norte 35 Norte 0 -- -- 73
2018-03-25 14:00:00 12.9 22 Norte 41 Norte 0 -- -- 75
2018-03-25 13:00:00 12.9 21 Norte 39 Noroeste 0.2 -- -- 81
2018-03-25 12:00:00 12.5 17 Oeste 36 Oeste 0.4 -- -- 96
2018-03-25 11:00:00 11.3 16 Oeste 31 Oeste 0 -- -- 96
2018-03-25 10:00:00 9.4 3 Noroeste 7 Sudoeste 2 -- -- 100
2018-03-25 09:00:00 8.5 2 Sudeste 5 Sudeste 2.6 -- -- 100
2018-03-25 08:00:00 8.1 2 Este 5 Nordeste 1 -- -- 99
2018-03-25 07:00:00 7.8 0 Calma 13 Sur 0.8 -- -- 99
2018-03-25 06:00:00 7.6 5 Sur 12 Sur 1.6 -- -- 99
2018-03-25 05:00:00 7.4 2 Este 6 Sudoeste 1.4 -- -- 97
2018-03-25 03:00:00 7.7 8 Oeste 17 Oeste 0.6 -- -- 95
2018-03-25 01:00:00 8.2 5 Oeste 14 Oeste 0 -- -- 87
2018-03-25 00:00:00 8.2 9 Oeste 22 Noroeste 0 -- -- 85
2018-03-24 23:00:00 8.4 11 Oeste 18 Oeste 0 -- -- 82
2018-03-24 22:00:00 9.1 11 Noroeste 40 Oeste 0 -- -- 73
2018-03-24 21:00:00 10 19 Noroeste 41 Oeste 0 -- -- 65
2018-03-24 20:00:00 10.8 23 Noroeste 51 Oeste 0 -- -- 59
2018-03-24 19:00:00 11.9 23 Noroeste 48 Noroeste 0 -- -- 59
2018-03-24 18:00:00 12.4 28 Noroeste 44 Oeste 0 -- -- 55
2018-03-24 17:00:00 12.6 30 Noroeste 55 Oeste 0 -- -- 56
2018-03-24 16:00:00 13.2 27 Noroeste 48 Noroeste 0 -- -- 56
2018-03-24 15:00:00 13.1 26 Noroeste 54 Noroeste 0 -- -- 59
2018-03-24 14:00:00 12.2 29 Noroeste 50 Oeste 0 -- -- 61
2018-03-24 13:00:00 12.4 24 Noroeste 53 Noroeste 0 -- -- 60
2018-03-24 12:00:00 10.6 21 Noroeste 42 Norte 0 -- -- 66
2018-03-24 11:00:00 9.8 20 Noroeste 53 Noroeste 0 -- -- 71
2018-03-24 10:00:00 8.9 17 Noroeste 46 Oeste 0 -- -- 81
2018-03-24 09:00:00 7.5 14 Noroeste 42 Oeste 0 -- -- 84
2018-03-24 08:00:00 6.8 18 Noroeste 37 Oeste 0 -- -- 86
2018-03-24 07:00:00 7 15 Noroeste 35 Noroeste 0 -- -- 88
2018-03-24 06:00:00 7.1 18 Noroeste 41 Noroeste 0 -- -- 86
2018-03-24 05:00:00 7.2 19 Noroeste 40 Oeste 0 -- -- 86
2018-03-24 04:00:00 7.7 13 Noroeste 37 Noroeste 0 -- -- 87
2018-03-24 03:00:00 8.4 12 Noroeste 41 Noroeste 0.2 -- -- 91
2018-03-24 02:00:00 8.3 19 Norte 60 Noroeste 3.8 -- -- 98
2018-03-24 01:00:00 11.6 19 Oeste 41 Oeste 1.2 -- -- 98
2018-03-24 00:00:00 12.2 22 Oeste 45 Oeste 0 -- -- 92
2018-03-23 23:00:00 12 18 Oeste 42 Oeste 0 -- -- 95
2018-03-23 22:00:00 12 16 Oeste 31 Oeste 0 -- -- 96
2018-03-23 21:00:00 11.9 16 Oeste 35 Oeste 0 -- -- 97
2018-03-23 20:00:00 12 14 Oeste 39 Oeste 0.8 -- -- 98
2018-03-23 19:00:00 12.8 17 Oeste 45 Sudoeste 0.8 -- -- 97
2018-03-23 18:00:00 13.3 14 Oeste 31 Oeste 0.2 -- -- 95
2018-03-23 17:00:00 12.4 3 Norte 8 Nordeste 0.6 -- -- 99
2018-03-23 16:00:00 12 4 Nordeste 8 Este 1.2 -- -- 99
2018-03-23 15:00:00 11.4 4 Nordeste 6 Nordeste 1 -- -- 99
2018-03-23 14:00:00 10.6 3 Nordeste 4 Nordeste 0.2 -- -- 98
2018-03-23 13:00:00 10 0 Calma 3 Este 0.2 -- -- 96
2018-03-23 12:00:00 9.5 2 Norte 6 Noroeste 0 -- -- 94
2018-03-23 11:00:00 9.2 0 Calma 7 Noroeste 0 -- -- 94
2018-03-23 10:00:00 8.8 7 Oeste 13 Oeste 0 -- -- 94
2018-03-23 09:00:00 8.4 4 Oeste 10 Noroeste 0 -- -- 94
2018-03-23 08:00:00 7.6 4 Norte 10 Noroeste 0 -- -- 94
2018-03-23 07:00:00 7.1 3 Sur 5 Sur 0 -- -- 93
2018-03-23 06:00:00 6.6 2 Sur 5 Sur 0 -- -- 93
2018-03-23 05:00:00 6.3 0 Calma 4 Este 0 -- -- 94
2018-03-23 04:00:00 5.6 0 Calma 7 Oeste 0 -- -- 95
2018-03-23 03:00:00 5.6 3 Sudoeste 12 Oeste 0 -- -- 93
2018-03-23 02:00:00 6.8 6 Oeste 24 Oeste 0 -- -- 92
2018-03-23 01:00:00 7.7 10 Oeste 15 Oeste 0 -- -- 94
2018-03-23 00:00:00 8 8 Sudoeste 13 Oeste 0 -- -- 93